sensor_id;sensor_type;location;lat;lon;timestamp;P1;durP1;ratioP1;P2;durP2;ratioP2
34204;SDS011;20471;49.680;20.074;2023-05-14T00:01:35;20.10;;;14.20;;
34204;SDS011;20471;49.680;20.074;2023-05-14T00:04:03;26.40;;;13.40;;
34204;SDS011;20471;49.680;20.074;2023-05-14T00:06:31;23.90;;;13.10;;
34204;SDS011;20471;49.680;20.074;2023-05-14T00:09:10;20.50;;;12.90;;
34204;SDS011;20471;49.680;20.074;2023-05-14T00:11:39;23.90;;;13.00;;
34204;SDS011;20471;49.680;20.074;2023-05-14T00:14:09;22.70;;;13.30;;
34204;SDS011;20471;49.680;20.074;2023-05-14T00:16:38;22.70;;;13.80;;
34204;SDS011;20471;49.680;20.074;2023-05-14T00:19:06;22.60;;;14.80;;
34204;SDS011;20471;49.680;20.074;2023-05-14T00:21:34;23.10;;;13.20;;
34204;SDS011;20471;49.680;20.074;2023-05-14T00:24:03;18.70;;;13.10;;
34204;SDS011;20471;49.680;20.074;2023-05-14T00:26:32;19.70;;;13.00;;
34204;SDS011;20471;49.680;20.074;2023-05-14T00:29:03;23.90;;;14.30;;
34204;SDS011;20471;49.680;20.074;2023-05-14T00:31:32;19.30;;;14.30;;
34204;SDS011;20471;49.680;20.074;2023-05-14T00:34:06;22.00;;;13.20;;
34204;SDS011;20471;49.680;20.074;2023-05-14T00:36:52;16.40;;;11.30;;
34204;SDS011;20471;49.680;20.074;2023-05-14T00:39:20;16.60;;;11.10;;
34204;SDS011;20471;49.680;20.074;2023-05-14T00:41:48;13.80;;;10.40;;
34204;SDS011;20471;49.680;20.074;2023-05-14T00:44:16;16.40;;;11.40;;
34204;SDS011;20471;49.680;20.074;2023-05-14T00:46:44;19.00;;;11.40;;
34204;SDS011;20471;49.680;20.074;2023-05-14T00:49:12;17.80;;;11.70;;
34204;SDS011;20471;49.680;20.074;2023-05-14T00:51:41;26.80;;;12.80;;
34204;SDS011;20471;49.680;20.074;2023-05-14T00:54:17;17.90;;;11.10;;
34204;SDS011;20471;49.680;20.074;2023-05-14T00:56:46;19.20;;;12.30;;
34204;SDS011;20471;49.680;20.074;2023-05-14T00:59:14;18.20;;;12.20;;
34204;SDS011;20471;49.680;20.074;2023-05-14T01:01:43;20.80;;;12.70;;
34204;SDS011;20471;49.680;20.074;2023-05-14T01:04:11;20.80;;;13.10;;
34204;SDS011;20471;49.680;20.074;2023-05-14T01:17:21;15.10;;;11.30;;
34204;SDS011;20471;49.680;20.074;2023-05-14T01:19:51;17.50;;;11.90;;
34204;SDS011;20471;49.680;20.074;2023-05-14T01:22:20;15.90;;;11.60;;
34204;SDS011;20471;49.680;20.074;2023-05-14T01:24:48;13.40;;;10.50;;
34204;SDS011;20471;49.680;20.074;2023-05-14T01:32:52;17.70;;;13.10;;
34204;SDS011;20471;49.680;20.074;2023-05-14T01:35:24;16.50;;;11.10;;
34204;SDS011;20471;49.680;20.074;2023-05-14T01:37:55;12.90;;;10.10;;
34204;SDS011;20471;49.680;20.074;2023-05-14T01:40:26;16.50;;;10.80;;
34204;SDS011;20471;49.680;20.074;2023-05-14T01:42:54;15.40;;;10.10;;
34204;SDS011;20471;49.680;20.074;2023-05-14T01:45:23;14.30;;;10.60;;
34204;SDS011;20471;49.680;20.074;2023-05-14T01:47:52;14.20;;;10.40;;
34204;SDS011;20471;49.680;20.074;2023-05-14T01:50:20;13.40;;;11.40;;
34204;SDS011;20471;49.680;20.074;2023-05-14T01:52:48;16.00;;;10.90;;
34204;SDS011;20471;49.680;20.074;2023-05-14T01:55:18;14.90;;;11.30;;
34204;SDS011;20471;49.680;20.074;2023-05-14T01:57:46;17.90;;;13.20;;
34204;SDS011;20471;49.680;20.074;2023-05-14T02:00:15;17.20;;;12.90;;
34204;SDS011;20471;49.680;20.074;2023-05-14T02:02:43;17.10;;;13.30;;
34204;SDS011;20471;49.680;20.074;2023-05-14T02:05:11;17.00;;;12.30;;
34204;SDS011;20471;49.680;20.074;2023-05-14T02:07:40;13.60;;;11.10;;
34204;SDS011;20471;49.680;20.074;2023-05-14T02:10:08;14.80;;;11.60;;
34204;SDS011;20471;49.680;20.074;2023-05-14T02:12:36;15.20;;;11.00;;
34204;SDS011;20471;49.680;20.074;2023-05-14T02:15:04;16.70;;;12.10;;
34204;SDS011;20471;49.680;20.074;2023-05-14T02:17:34;17.60;;;11.80;;
34204;SDS011;20471;49.680;20.074;2023-05-14T02:20:02;15.60;;;11.00;;
34204;SDS011;20471;49.680;20.074;2023-05-14T02:22:30;14.70;;;9.60;;
34204;SDS011;20471;49.680;20.074;2023-05-14T02:24:58;15.20;;;10.00;;
34204;SDS011;20471;49.680;20.074;2023-05-14T02:27:26;15.30;;;9.80;;
34204;SDS011;20471;49.680;20.074;2023-05-14T02:29:55;13.40;;;9.60;;
34204;SDS011;20471;49.680;20.074;2023-05-14T02:32:26;14.50;;;10.00;;
34204;SDS011;20471;49.680;20.074;2023-05-14T02:34:54;14.60;;;9.70;;
34204;SDS011;20471;49.680;20.074;2023-05-14T02:37:23;14.60;;;10.60;;
34204;SDS011;20471;49.680;20.074;2023-05-14T02:39:51;16.80;;;10.80;;
34204;SDS011;20471;49.680;20.074;2023-05-14T02:42:19;12.80;;;10.00;;
34204;SDS011;20471;49.680;20.074;2023-05-14T02:44:47;12.60;;;9.30;;
34204;SDS011;20471;49.680;20.074;2023-05-14T02:47:15;13.70;;;9.80;;
34204;SDS011;20471;49.680;20.074;2023-05-14T02:49:43;17.30;;;9.80;;
34204;SDS011;20471;49.680;20.074;2023-05-14T02:52:11;11.60;;;9.80;;
34204;SDS011;20471;49.680;20.074;2023-05-14T02:54:39;14.60;;;9.90;;
34204;SDS011;20471;49.680;20.074;2023-05-14T02:57:07;12.30;;;9.10;;
34204;SDS011;20471;49.680;20.074;2023-05-14T02:59:35;14.00;;;10.00;;
34204;SDS011;20471;49.680;20.074;2023-05-14T03:02:04;14.60;;;9.40;;
34204;SDS011;20471;49.680;20.074;2023-05-14T03:04:32;12.70;;;9.60;;
34204;SDS011;20471;49.680;20.074;2023-05-14T03:07:00;10.60;;;8.80;;
34204;SDS011;20471;49.680;20.074;2023-05-14T03:09:28;12.90;;;8.90;;
34204;SDS011;20471;49.680;20.074;2023-05-14T03:11:56;13.00;;;9.60;;
34204;SDS011;20471;49.680;20.074;2023-05-14T03:14:24;12.40;;;9.30;;
34204;SDS011;20471;49.680;20.074;2023-05-14T03:16:53;14.10;;;9.30;;
34204;SDS011;20471;49.680;20.074;2023-05-14T03:19:21;14.20;;;9.90;;
34204;SDS011;20471;49.680;20.074;2023-05-14T03:21:49;13.50;;;9.40;;
34204;SDS011;20471;49.680;20.074;2023-05-14T03:24:17;14.20;;;8.90;;
34204;SDS011;20471;49.680;20.074;2023-05-14T03:26:46;15.30;;;9.80;;
34204;SDS011;20471;49.680;20.074;2023-05-14T03:29:14;14.20;;;9.60;;
34204;SDS011;20471;49.680;20.074;2023-05-14T03:31:43;11.40;;;8.90;;
34204;SDS011;20471;49.680;20.074;2023-05-14T03:34:11;14.70;;;9.90;;
34204;SDS011;20471;49.680;20.074;2023-05-14T03:36:40;13.40;;;9.90;;
34204;SDS011;20471;49.680;20.074;2023-05-14T03:39:08;14.40;;;9.80;;
34204;SDS011;20471;49.680;20.074;2023-05-14T03:41:36;14.00;;;10.40;;
34204;SDS011;20471;49.680;20.074;2023-05-14T03:44:04;12.10;;;9.40;;
34204;SDS011;20471;49.680;20.074;2023-05-14T03:46:32;14.60;;;9.40;;
34204;SDS011;20471;49.680;20.074;2023-05-14T03:49:01;14.50;;;9.80;;
34204;SDS011;20471;49.680;20.074;2023-05-14T03:51:29;12.70;;;9.90;;
34204;SDS011;20471;49.680;20.074;2023-05-14T03:53:57;13.70;;;9.30;;
34204;SDS011;20471;49.680;20.074;2023-05-14T03:56:26;14.70;;;9.90;;
34204;SDS011;20471;49.680;20.074;2023-05-14T03:58:54;14.70;;;9.60;;
34204;SDS011;20471;49.680;20.074;2023-05-14T04:01:22;13.80;;;10.10;;
34204;SDS011;20471;49.680;20.074;2023-05-14T04:03:50;15.50;;;9.90;;
34204;SDS011;20471;49.680;20.074;2023-05-14T04:06:18;14.70;;;10.00;;
34204;SDS011;20471;49.680;20.074;2023-05-14T04:08:46;14.60;;;10.30;;
34204;SDS011;20471;49.680;20.074;2023-05-14T04:11:14;13.20;;;9.30;;
34204;SDS011;20471;49.680;20.074;2023-05-14T04:13:42;11.70;;;8.20;;
34204;SDS011;20471;49.680;20.074;2023-05-14T04:16:10;14.70;;;8.50;;
34204;SDS011;20471;49.680;20.074;2023-05-14T04:18:38;12.60;;;9.10;;
34204;SDS011;20471;49.680;20.074;2023-05-14T04:21:07;11.70;;;9.30;;
34204;SDS011;20471;49.680;20.074;2023-05-14T04:23:35;13.90;;;9.30;;
34204;SDS011;20471;49.680;20.074;2023-05-14T04:26:03;11.70;;;9.10;;
34204;SDS011;20471;49.680;20.074;2023-05-14T04:28:31;13.80;;;9.00;;
34204;SDS011;20471;49.680;20.074;2023-05-14T04:30:59;14.70;;;9.90;;
34204;SDS011;20471;49.680;20.074;2023-05-14T04:33:27;15.60;;;10.70;;
34204;SDS011;20471;49.680;20.074;2023-05-14T04:35:55;15.20;;;10.70;;
34204;SDS011;20471;49.680;20.074;2023-05-14T04:38:24;13.10;;;10.10;;
34204;SDS011;20471;49.680;20.074;2023-05-14T04:40:52;14.80;;;10.10;;
34204;SDS011;20471;49.680;20.074;2023-05-14T04:43:20;12.10;;;9.40;;
34204;SDS011;20471;49.680;20.074;2023-05-14T04:45:48;12.20;;;8.50;;
34204;SDS011;20471;49.680;20.074;2023-05-14T04:48:17;13.60;;;8.60;;
34204;SDS011;20471;49.680;20.074;2023-05-14T04:50:45;16.00;;;10.80;;
34204;SDS011;20471;49.680;20.074;2023-05-14T04:53:13;14.60;;;8.70;;
34204;SDS011;20471;49.680;20.074;2023-05-14T04:55:42;11.10;;;8.10;;
34204;SDS011;20471;49.680;20.074;2023-05-14T04:58:10;15.70;;;11.20;;
34204;SDS011;20471;49.680;20.074;2023-05-14T05:00:38;38.30;;;27.80;;
34204;SDS011;20471;49.680;20.074;2023-05-14T05:03:07;65.10;;;48.10;;
34204;SDS011;20471;49.680;20.074;2023-05-14T05:05:35;39.80;;;29.50;;
34204;SDS011;20471;49.680;20.074;2023-05-14T05:08:03;28.70;;;21.30;;
34204;SDS011;20471;49.680;20.074;2023-05-14T05:10:31;25.40;;;18.20;;
34204;SDS011;20471;49.680;20.074;2023-05-14T05:12:59;21.90;;;17.20;;
34204;SDS011;20471;49.680;20.074;2023-05-14T05:15:27;20.00;;;14.90;;
34204;SDS011;20471;49.680;20.074;2023-05-14T05:17:56;16.80;;;12.30;;
34204;SDS011;20471;49.680;20.074;2023-05-14T05:20:24;12.90;;;10.60;;
34204;SDS011;20471;49.680;20.074;2023-05-14T05:22:53;11.50;;;9.70;;
34204;SDS011;20471;49.680;20.074;2023-05-14T05:25:21;12.20;;;8.90;;
34204;SDS011;20471;49.680;20.074;2023-05-14T05:27:49;9.00;;;6.90;;
34204;SDS011;20471;49.680;20.074;2023-05-14T05:30:17;7.60;;;6.70;;
34204;SDS011;20471;49.680;20.074;2023-05-14T05:32:46;10.10;;;7.00;;
34204;SDS011;20471;49.680;20.074;2023-05-14T05:35:14;8.00;;;7.20;;
34204;SDS011;20471;49.680;20.074;2023-05-14T05:37:42;8.80;;;6.90;;
34204;SDS011;20471;49.680;20.074;2023-05-14T05:40:10;8.80;;;7.50;;
34204;SDS011;20471;49.680;20.074;2023-05-14T05:42:40;8.90;;;7.10;;
34204;SDS011;20471;49.680;20.074;2023-05-14T05:45:08;9.40;;;6.90;;
34204;SDS011;20471;49.680;20.074;2023-05-14T05:47:36;9.60;;;7.50;;
34204;SDS011;20471;49.680;20.074;2023-05-14T05:50:05;9.50;;;6.90;;
34204;SDS011;20471;49.680;20.074;2023-05-14T05:52:34;10.50;;;7.60;;
34204;SDS011;20471;49.680;20.074;2023-05-14T05:55:02;7.90;;;6.70;;
34204;SDS011;20471;49.680;20.074;2023-05-14T05:57:30;8.10;;;6.70;;
34204;SDS011;20471;49.680;20.074;2023-05-14T05:59:58;8.00;;;6.70;;
34204;SDS011;20471;49.680;20.074;2023-05-14T06:02:30;9.20;;;7.00;;
34204;SDS011;20471;49.680;20.074;2023-05-14T06:04:58;8.70;;;7.20;;
34204;SDS011;20471;49.680;20.074;2023-05-14T06:07:26;9.30;;;6.50;;
34204;SDS011;20471;49.680;20.074;2023-05-14T06:09:54;9.70;;;7.20;;
34204;SDS011;20471;49.680;20.074;2023-05-14T06:12:22;9.60;;;7.00;;
34204;SDS011;20471;49.680;20.074;2023-05-14T06:14:52;6.80;;;5.60;;
34204;SDS011;20471;49.680;20.074;2023-05-14T06:17:23;8.70;;;6.10;;
34204;SDS011;20471;49.680;20.074;2023-05-14T06:19:52;11.90;;;7.00;;
34204;SDS011;20471;49.680;20.074;2023-05-14T06:22:20;9.00;;;6.40;;
34204;SDS011;20471;49.680;20.074;2023-05-14T06:24:48;7.70;;;5.80;;
34204;SDS011;20471;49.680;20.074;2023-05-14T06:27:16;7.90;;;6.30;;
34204;SDS011;20471;49.680;20.074;2023-05-14T06:29:44;7.50;;;5.60;;
34204;SDS011;20471;49.680;20.074;2023-05-14T06:32:12;7.60;;;6.20;;
34204;SDS011;20471;49.680;20.074;2023-05-14T06:34:41;9.20;;;6.30;;
34204;SDS011;20471;49.680;20.074;2023-05-14T06:37:09;8.80;;;6.50;;
34204;SDS011;20471;49.680;20.074;2023-05-14T06:39:38;9.10;;;6.20;;
34204;SDS011;20471;49.680;20.074;2023-05-14T06:42:09;7.40;;;5.50;;
34204;SDS011;20471;49.680;20.074;2023-05-14T06:44:37;10.00;;;6.10;;
34204;SDS011;20471;49.680;20.074;2023-05-14T06:47:05;9.70;;;5.30;;
34204;SDS011;20471;49.680;20.074;2023-05-14T06:49:34;7.00;;;5.40;;
34204;SDS011;20471;49.680;20.074;2023-05-14T06:52:02;7.40;;;5.40;;
34204;SDS011;20471;49.680;20.074;2023-05-14T06:54:32;8.40;;;5.30;;
34204;SDS011;20471;49.680;20.074;2023-05-14T06:57:00;7.00;;;5.20;;
34204;SDS011;20471;49.680;20.074;2023-05-14T06:59:28;7.50;;;4.70;;
34204;SDS011;20471;49.680;20.074;2023-05-14T07:01:56;7.30;;;5.10;;
34204;SDS011;20471;49.680;20.074;2023-05-14T07:04:25;5.80;;;5.00;;
34204;SDS011;20471;49.680;20.074;2023-05-14T07:06:53;7.50;;;4.80;;
34204;SDS011;20471;49.680;20.074;2023-05-14T07:09:21;6.70;;;4.60;;
34204;SDS011;20471;49.680;20.074;2023-05-14T07:11:49;4.70;;;4.20;;
34204;SDS011;20471;49.680;20.074;2023-05-14T07:14:17;5.00;;;4.20;;
34204;SDS011;20471;49.680;20.074;2023-05-14T07:16:45;8.30;;;4.30;;
34204;SDS011;20471;49.680;20.074;2023-05-14T07:19:13;7.50;;;4.80;;
34204;SDS011;20471;49.680;20.074;2023-05-14T07:21:41;7.60;;;5.20;;
34204;SDS011;20471;49.680;20.074;2023-05-14T07:24:09;9.50;;;5.00;;
34204;SDS011;20471;49.680;20.074;2023-05-14T07:26:37;5.10;;;4.10;;
34204;SDS011;20471;49.680;20.074;2023-05-14T07:29:05;7.30;;;4.30;;
34204;SDS011;20471;49.680;20.074;2023-05-14T07:31:33;11.40;;;6.10;;
34204;SDS011;20471;49.680;20.074;2023-05-14T07:34:02;8.90;;;5.30;;
34204;SDS011;20471;49.680;20.074;2023-05-14T07:36:30;7.20;;;4.70;;
34204;SDS011;20471;49.680;20.074;2023-05-14T07:38:58;10.70;;;3.90;;
34204;SDS011;20471;49.680;20.074;2023-05-14T07:41:27;6.60;;;3.50;;
34204;SDS011;20471;49.680;20.074;2023-05-14T07:43:55;5.60;;;2.80;;
34204;SDS011;20471;49.680;20.074;2023-05-14T07:46:23;4.90;;;2.80;;
34204;SDS011;20471;49.680;20.074;2023-05-14T07:48:51;3.50;;;2.10;;
34204;SDS011;20471;49.680;20.074;2023-05-14T07:51:19;4.70;;;2.10;;
34204;SDS011;20471;49.680;20.074;2023-05-14T07:53:48;1.90;;;1.80;;
34204;SDS011;20471;49.680;20.074;2023-05-14T07:56:16;4.00;;;2.00;;
34204;SDS011;20471;49.680;20.074;2023-05-14T07:58:45;6.10;;;2.50;;
34204;SDS011;20471;49.680;20.074;2023-05-14T08:01:13;2.30;;;2.10;;
34204;SDS011;20471;49.680;20.074;2023-05-14T08:03:41;2.20;;;1.70;;
34204;SDS011;20471;49.680;20.074;2023-05-14T08:06:09;2.90;;;1.40;;
34204;SDS011;20471;49.680;20.074;2023-05-14T08:08:37;2.00;;;1.80;;
34204;SDS011;20471;49.680;20.074;2023-05-14T08:11:06;2.30;;;1.60;;
34204;SDS011;20471;49.680;20.074;2023-05-14T08:13:34;4.10;;;1.40;;
34204;SDS011;20471;49.680;20.074;2023-05-14T08:16:02;3.30;;;2.20;;
34204;SDS011;20471;49.680;20.074;2023-05-14T08:18:30;1.80;;;1.50;;
34204;SDS011;20471;49.680;20.074;2023-05-14T08:20:58;2.20;;;1.70;;
34204;SDS011;20471;49.680;20.074;2023-05-14T08:23:26;2.10;;;1.70;;
34204;SDS011;20471;49.680;20.074;2023-05-14T08:25:55;2.00;;;1.80;;
34204;SDS011;20471;49.680;20.074;2023-05-14T08:28:23;3.70;;;1.80;;
34204;SDS011;20471;49.680;20.074;2023-05-14T08:30:51;2.10;;;1.60;;
34204;SDS011;20471;49.680;20.074;2023-05-14T08:33:19;1.70;;;1.10;;
34204;SDS011;20471;49.680;20.074;2023-05-14T08:35:48;3.50;;;1.50;;
34204;SDS011;20471;49.680;20.074;2023-05-14T08:38:18;2.70;;;1.40;;
34204;SDS011;20471;49.680;20.074;2023-05-14T08:40:52;3.70;;;1.50;;
34204;SDS011;20471;49.680;20.074;2023-05-14T08:43:29;3.30;;;1.40;;
34204;SDS011;20471;49.680;20.074;2023-05-14T08:46:10;2.40;;;1.30;;
34204;SDS011;20471;49.680;20.074;2023-05-14T08:48:41;1.50;;;1.40;;
34204;SDS011;20471;49.680;20.074;2023-05-14T08:51:14;1.60;;;1.40;;
34204;SDS011;20471;49.680;20.074;2023-05-14T08:53:43;2.70;;;1.20;;
34204;SDS011;20471;49.680;20.074;2023-05-14T08:56:11;1.80;;;1.40;;
34204;SDS011;20471;49.680;20.074;2023-05-14T08:58:40;2.10;;;1.30;;
34204;SDS011;20471;49.680;20.074;2023-05-14T09:01:09;3.50;;;1.50;;
34204;SDS011;20471;49.680;20.074;2023-05-14T09:03:37;2.00;;;1.40;;
34204;SDS011;20471;49.680;20.074;2023-05-14T09:06:06;1.60;;;1.30;;
34204;SDS011;20471;49.680;20.074;2023-05-14T09:08:34;1.60;;;1.30;;
34204;SDS011;20471;49.680;20.074;2023-05-14T09:11:04;1.90;;;1.20;;
34204;SDS011;20471;49.680;20.074;2023-05-14T09:13:32;1.60;;;1.50;;
34204;SDS011;20471;49.680;20.074;2023-05-14T09:16:03;2.30;;;1.50;;
34204;SDS011;20471;49.680;20.074;2023-05-14T09:18:31;2.70;;;1.20;;
34204;SDS011;20471;49.680;20.074;2023-05-14T09:21:03;2.00;;;1.40;;
34204;SDS011;20471;49.680;20.074;2023-05-14T09:23:31;2.20;;;1.40;;
34204;SDS011;20471;49.680;20.074;2023-05-14T09:26:03;1.60;;;1.50;;
34204;SDS011;20471;49.680;20.074;2023-05-14T09:28:32;2.10;;;1.80;;
34204;SDS011;20471;49.680;20.074;2023-05-14T09:31:01;2.20;;;1.30;;
34204;SDS011;20471;49.680;20.074;2023-05-14T09:33:29;1.50;;;1.40;;
34204;SDS011;20471;49.680;20.074;2023-05-14T09:35:58;1.50;;;1.20;;
34204;SDS011;20471;49.680;20.074;2023-05-14T09:38:30;1.90;;;1.30;;
34204;SDS011;20471;49.680;20.074;2023-05-14T09:40:59;3.30;;;1.60;;
34204;SDS011;20471;49.680;20.074;2023-05-14T09:43:27;3.80;;;1.40;;
34204;SDS011;20471;49.680;20.074;2023-05-14T09:45:55;2.00;;;1.60;;
34204;SDS011;20471;49.680;20.074;2023-05-14T09:48:24;2.20;;;2.00;;
34204;SDS011;20471;49.680;20.074;2023-05-14T09:50:52;4.10;;;1.60;;
34204;SDS011;20471;49.680;20.074;2023-05-14T09:53:20;2.20;;;1.50;;
34204;SDS011;20471;49.680;20.074;2023-05-14T09:55:48;1.50;;;1.40;;
34204;SDS011;20471;49.680;20.074;2023-05-14T09:58:17;2.90;;;1.70;;
34204;SDS011;20471;49.680;20.074;2023-05-14T10:00:45;3.90;;;1.70;;
34204;SDS011;20471;49.680;20.074;2023-05-14T10:03:14;1.60;;;1.40;;
34204;SDS011;20471;49.680;20.074;2023-05-14T10:05:42;1.90;;;1.60;;
34204;SDS011;20471;49.680;20.074;2023-05-14T10:11:04;2.60;;;1.70;;
34204;SDS011;20471;49.680;20.074;2023-05-14T10:13:38;4.20;;;1.80;;
34204;SDS011;20471;49.680;20.074;2023-05-14T10:18:45;2.20;;;1.70;;
34204;SDS011;20471;49.680;20.074;2023-05-14T10:21:14;1.90;;;1.70;;
34204;SDS011;20471;49.680;20.074;2023-05-14T10:23:46;5.50;;;1.80;;
34204;SDS011;20471;49.680;20.074;2023-05-14T10:26:15;1.40;;;1.30;;
34204;SDS011;20471;49.680;20.074;2023-05-14T10:28:44;1.70;;;1.60;;
34204;SDS011;20471;49.680;20.074;2023-05-14T10:31:12;4.40;;;1.60;;
34204;SDS011;20471;49.680;20.074;2023-05-14T10:33:47;1.60;;;1.50;;
34204;SDS011;20471;49.680;20.074;2023-05-14T10:36:16;2.00;;;1.60;;
34204;SDS011;20471;49.680;20.074;2023-05-14T10:38:45;1.50;;;1.40;;
34204;SDS011;20471;49.680;20.074;2023-05-14T10:41:14;2.80;;;1.40;;
34204;SDS011;20471;49.680;20.074;2023-05-14T10:43:43;2.20;;;1.50;;
34204;SDS011;20471;49.680;20.074;2023-05-14T10:46:12;3.60;;;1.50;;
34204;SDS011;20471;49.680;20.074;2023-05-14T10:48:41;2.40;;;1.50;;
34204;SDS011;20471;49.680;20.074;2023-05-14T10:51:11;1.50;;;1.30;;
34204;SDS011;20471;49.680;20.074;2023-05-14T10:53:40;1.40;;;1.10;;
34204;SDS011;20471;49.680;20.074;2023-05-14T10:56:10;2.60;;;1.60;;
34204;SDS011;20471;49.680;20.074;2023-05-14T10:58:43;2.10;;;1.30;;
34204;SDS011;20471;49.680;20.074;2023-05-14T11:01:12;1.60;;;1.50;;
34204;SDS011;20471;49.680;20.074;2023-05-14T11:03:41;4.30;;;1.50;;
34204;SDS011;20471;49.680;20.074;2023-05-14T11:06:13;2.00;;;1.30;;
34204;SDS011;20471;49.680;20.074;2023-05-14T11:08:42;1.30;;;1.20;;
34204;SDS011;20471;49.680;20.074;2023-05-14T11:11:11;3.00;;;1.60;;
34204;SDS011;20471;49.680;20.074;2023-05-14T11:13:40;1.70;;;1.50;;
34204;SDS011;20471;49.680;20.074;2023-05-14T11:16:08;2.10;;;1.40;;
34204;SDS011;20471;49.680;20.074;2023-05-14T11:18:36;1.70;;;1.50;;
34204;SDS011;20471;49.680;20.074;2023-05-14T11:21:07;2.60;;;1.50;;
34204;SDS011;20471;49.680;20.074;2023-05-14T11:23:35;1.70;;;1.40;;
34204;SDS011;20471;49.680;20.074;2023-05-14T11:26:03;2.40;;;1.70;;
34204;SDS011;20471;49.680;20.074;2023-05-14T11:28:31;2.60;;;1.50;;
34204;SDS011;20471;49.680;20.074;2023-05-14T11:31:03;3.50;;;1.30;;
34204;SDS011;20471;49.680;20.074;2023-05-14T11:33:31;3.30;;;1.30;;
34204;SDS011;20471;49.680;20.074;2023-05-14T11:36:05;4.20;;;1.40;;
34204;SDS011;20471;49.680;20.074;2023-05-14T11:38:44;2.20;;;1.30;;
34204;SDS011;20471;49.680;20.074;2023-05-14T11:41:23;2.40;;;1.60;;
34204;SDS011;20471;49.680;20.074;2023-05-14T11:43:59;1.90;;;1.50;;
34204;SDS011;20471;49.680;20.074;2023-05-14T11:46:31;2.00;;;1.40;;
34204;SDS011;20471;49.680;20.074;2023-05-14T11:48:59;1.40;;;1.30;;
34204;SDS011;20471;49.680;20.074;2023-05-14T11:51:31;3.20;;;1.70;;
34204;SDS011;20471;49.680;20.074;2023-05-14T11:54:04;1.60;;;1.50;;
34204;SDS011;20471;49.680;20.074;2023-05-14T11:59:04;1.70;;;1.20;;
34204;SDS011;20471;49.680;20.074;2023-05-14T12:01:37;3.80;;;1.50;;
34204;SDS011;20471;49.680;20.074;2023-05-14T12:04:05;1.70;;;1.50;;
34204;SDS011;20471;49.680;20.074;2023-05-14T12:06:37;2.30;;;1.40;;
34204;SDS011;20471;49.680;20.074;2023-05-14T12:09:06;4.00;;;1.50;;
34204;SDS011;20471;49.680;20.074;2023-05-14T12:11:35;2.10;;;1.30;;
34204;SDS011;20471;49.680;20.074;2023-05-14T12:17:19;1.60;;;1.40;;
34204;SDS011;20471;49.680;20.074;2023-05-14T12:19:50;2.30;;;1.60;;
34204;SDS011;20471;49.680;20.074;2023-05-14T12:22:21;3.10;;;1.30;;
34204;SDS011;20471;49.680;20.074;2023-05-14T12:24:55;3.20;;;1.90;;
34204;SDS011;20471;49.680;20.074;2023-05-14T12:27:29;2.10;;;1.40;;
34204;SDS011;20471;49.680;20.074;2023-05-14T12:29:58;1.40;;;1.20;;
34204;SDS011;20471;49.680;20.074;2023-05-14T12:32:33;5.20;;;1.60;;
34204;SDS011;20471;49.680;20.074;2023-05-14T12:35:04;2.00;;;1.40;;
34204;SDS011;20471;49.680;20.074;2023-05-14T12:37:36;1.60;;;1.30;;
34204;SDS011;20471;49.680;20.074;2023-05-14T12:40:08;1.50;;;1.20;;
34204;SDS011;20471;49.680;20.074;2023-05-14T12:42:37;2.90;;;1.40;;
34204;SDS011;20471;49.680;20.074;2023-05-14T12:45:06;1.70;;;1.20;;
34204;SDS011;20471;49.680;20.074;2023-05-14T12:47:37;5.20;;;1.70;;
34204;SDS011;20471;49.680;20.074;2023-05-14T12:50:05;2.60;;;1.40;;
34204;SDS011;20471;49.680;20.074;2023-05-14T12:52:42;1.30;;;1.10;;
34204;SDS011;20471;49.680;20.074;2023-05-14T12:55:10;1.80;;;1.30;;
34204;SDS011;20471;49.680;20.074;2023-05-14T12:57:38;2.00;;;1.50;;
34204;SDS011;20471;49.680;20.074;2023-05-14T13:00:06;5.10;;;1.80;;
34204;SDS011;20471;49.680;20.074;2023-05-14T13:02:36;4.20;;;1.10;;
34204;SDS011;20471;49.680;20.074;2023-05-14T13:05:05;1.60;;;1.40;;
34204;SDS011;20471;49.680;20.074;2023-05-14T13:07:33;1.30;;;1.20;;
34204;SDS011;20471;49.680;20.074;2023-05-14T13:10:02;1.80;;;1.20;;
34204;SDS011;20471;49.680;20.074;2023-05-14T13:12:32;1.60;;;1.30;;
34204;SDS011;20471;49.680;20.074;2023-05-14T13:15:00;1.80;;;1.50;;
34204;SDS011;20471;49.680;20.074;2023-05-14T13:17:28;3.50;;;1.30;;
34204;SDS011;20471;49.680;20.074;2023-05-14T13:19:57;3.70;;;1.40;;
34204;SDS011;20471;49.680;20.074;2023-05-14T13:22:25;2.10;;;1.30;;
34204;SDS011;20471;49.680;20.074;2023-05-14T13:24:53;1.60;;;1.30;;
34204;SDS011;20471;49.680;20.074;2023-05-14T13:27:21;2.60;;;1.20;;
34204;SDS011;20471;49.680;20.074;2023-05-14T13:29:49;1.50;;;1.40;;
34204;SDS011;20471;49.680;20.074;2023-05-14T13:32:17;2.80;;;1.30;;
34204;SDS011;20471;49.680;20.074;2023-05-14T13:34:45;2.20;;;1.40;;
34204;SDS011;20471;49.680;20.074;2023-05-14T13:37:13;3.10;;;1.40;;
34204;SDS011;20471;49.680;20.074;2023-05-14T13:39:42;2.20;;;1.20;;
34204;SDS011;20471;49.680;20.074;2023-05-14T13:42:10;1.70;;;1.30;;
34204;SDS011;20471;49.680;20.074;2023-05-14T13:44:38;2.90;;;1.30;;
34204;SDS011;20471;49.680;20.074;2023-05-14T13:47:06;6.90;;;1.60;;
34204;SDS011;20471;49.680;20.074;2023-05-14T13:49:34;2.70;;;1.60;;
34204;SDS011;20471;49.680;20.074;2023-05-14T13:52:02;2.70;;;1.30;;
34204;SDS011;20471;49.680;20.074;2023-05-14T13:54:31;2.50;;;1.60;;
34204;SDS011;20471;49.680;20.074;2023-05-14T13:56:59;9.20;;;1.40;;
34204;SDS011;20471;49.680;20.074;2023-05-14T13:59:27;2.00;;;1.60;;
34204;SDS011;20471;49.680;20.074;2023-05-14T14:01:55;3.20;;;1.70;;
34204;SDS011;20471;49.680;20.074;2023-05-14T14:04:23;4.10;;;1.70;;
34204;SDS011;20471;49.680;20.074;2023-05-14T14:06:54;2.90;;;1.60;;
34204;SDS011;20471;49.680;20.074;2023-05-14T14:09:23;1.90;;;1.60;;
34204;SDS011;20471;49.680;20.074;2023-05-14T14:11:51;2.90;;;1.40;;
34204;SDS011;20471;49.680;20.074;2023-05-14T14:14:19;2.00;;;1.80;;
34204;SDS011;20471;49.680;20.074;2023-05-14T14:16:47;3.40;;;1.80;;
34204;SDS011;20471;49.680;20.074;2023-05-14T14:19:16;1.90;;;1.50;;
34204;SDS011;20471;49.680;20.074;2023-05-14T14:21:44;2.60;;;1.50;;
34204;SDS011;20471;49.680;20.074;2023-05-14T14:24:13;2.00;;;1.50;;
34204;SDS011;20471;49.680;20.074;2023-05-14T14:26:41;1.70;;;1.60;;
34204;SDS011;20471;49.680;20.074;2023-05-14T14:29:09;2.10;;;1.70;;
34204;SDS011;20471;49.680;20.074;2023-05-14T14:31:37;3.00;;;1.40;;
34204;SDS011;20471;49.680;20.074;2023-05-14T14:34:05;2.20;;;1.60;;
34204;SDS011;20471;49.680;20.074;2023-05-14T14:36:33;3.10;;;1.90;;
34204;SDS011;20471;49.680;20.074;2023-05-14T14:39:01;4.30;;;1.90;;
34204;SDS011;20471;49.680;20.074;2023-05-14T14:41:30;3.20;;;2.30;;
34204;SDS011;20471;49.680;20.074;2023-05-14T14:43:58;1.90;;;1.50;;
34204;SDS011;20471;49.680;20.074;2023-05-14T14:46:28;1.90;;;1.60;;
34204;SDS011;20471;49.680;20.074;2023-05-14T14:48:56;2.00;;;1.70;;
34204;SDS011;20471;49.680;20.074;2023-05-14T14:51:24;3.30;;;1.60;;
34204;SDS011;20471;49.680;20.074;2023-05-14T14:53:52;2.60;;;1.60;;
34204;SDS011;20471;49.680;20.074;2023-05-14T14:56:21;5.00;;;1.70;;
34204;SDS011;20471;49.680;20.074;2023-05-14T14:58:49;2.50;;;1.70;;
34204;SDS011;20471;49.680;20.074;2023-05-14T15:01:17;3.80;;;2.30;;
34204;SDS011;20471;49.680;20.074;2023-05-14T15:03:46;5.60;;;3.80;;